Time;durP1;ratioP1;P1;durP2;ratioP2;P2;SDS_P1;SDS_P2;PMS_P1;PMS_P2;Temp;Humidity;BMP_temperature;BMP_pressure;BME280_temperature;BME280_humidity;BME280_pressure;Samples;Min_cycle;Max_cycle;Signal;HPM_P1;HPM_P2
2022/04/26 03:36:47;;;;;;;17.73;13.38;;;;;;;;;;2072656;28;20169;-54
2022/04/26 03:37:47;;;;;;;15.88;12.85;;;;;;;;;;2072128;28;20853;-49
2022/04/26 03:38:48;;;;;;;15.27;13.68;;;;;;;;;;2072858;28;20180;-49
2022/04/26 03:39:49;;;;;;;17.27;14.43;;;;;;;;;;2071879;28;20173;-49
2022/04/26 03:40:49;;;;;;;17.52;13.45;;;;;;;;;;2067241;28;20205;-49
2022/04/26 03:41:50;;;;;;;18.42;14.13;;;;;;;;;;2072303;28;20177;-51
2022/04/26 03:42:50;;;;;;;18.07;14.60;;;;;;;;;;2080051;28;20203;-49
2022/04/26 03:43:50;;;;;;;17.20;13.55;;;;;;;;;;2069451;28;20185;-50
2022/04/26 03:44:50;;;;;;;19.17;13.73;;;;;;;;;;2072488;28;20180;-48
2022/04/26 03:45:52;;;;;;;18.47;15.57;;;;;;;;;;2072744;28;20208;-50
2022/04/26 03:46:53;;;;;;;17.90;15.33;;;;;;;;;;2072407;28;20173;-50
2022/04/26 03:47:53;;;;;;;19.10;14.50;;;;;;;;;;2069831;28;20233;-49
2022/04/26 03:48:53;;;;;;;17.97;15.03;;;;;;;;;;2071402;28;20177;-47
2022/04/26 03:49:53;;;;;;;17.13;13.85;;;;;;;;;;2071937;28;20177;-51
2022/04/26 03:50:53;;;;;;;17.07;14.93;;;;;;;;;;2072410;28;20180;-51
2022/04/26 03:51:54;;;;;;;19.40;14.38;;;;;;;;;;2073204;28;20184;-49
2022/04/26 03:52:54;;;;;;;16.65;14.80;;;;;;;;;;2072799;28;20185;-48
2022/04/26 03:53:54;;;;;;;20.67;15.20;;;;;;;;;;2072218;28;20815;-49
2022/04/26 03:54:54;;;;;;;17.97;13.60;;;;;;;;;;2069932;28;20738;-49
2022/04/26 03:55:55;;;;;;;17.90;14.53;;;;;;;;;;2072876;28;20216;-51
2022/04/26 03:56:55;;;;;;;20.93;14.07;;;;;;;;;;2079974;28;20207;-51
2022/04/26 03:57:57;;;;;;;17.95;14.60;;;;;;;;;;2069075;28;20168;-49
2022/04/26 03:58:57;;;;;;;17.90;15.37;;;;;;;;;;2072130;28;20184;-50
2022/04/26 03:59:57;;;;;;;19.77;15.50;;;;;;;;;;2080762;28;20164;-48
2022/04/26 04:00:58;;;;;;;20.07;15.33;;;;;;;;;;2072788;28;20647;-49
2022/04/26 04:01:58;;;;;;;16.70;14.77;;;;;;;;;;2072771;28;20169;-49
2022/04/26 04:02:58;;;;;;;21.20;16.33;;;;;;;;;;2071687;28;20177;-51
2022/04/26 04:03:58;;;;;;;20.90;15.80;;;;;;;;;;2072371;28;20188;-49
2022/04/26 04:04:59;;;;;;;21.60;16.52;;;;;;;;;;2072591;28;20212;-51
2022/04/26 04:05:59;;;;;;;20.83;14.77;;;;;;;;;;2073311;28;20245;-50
2022/04/26 04:07:00;;;;;;;20.30;16.88;;;;;;;;;;2073237;28;20235;-52
2022/04/26 04:08:00;;;;;;;22.23;16.67;;;;;;;;;;2072319;28;20555;-50
2022/04/26 04:09:00;;;;;;;23.13;16.17;;;;;;;;;;2072657;28;20220;-50
2022/04/26 04:10:01;;;;;;;19.90;16.08;;;;;;;;;;2074544;28;20747;-52
2022/04/26 04:11:01;;;;;;;19.90;15.70;;;;;;;;;;2074156;28;20169;-49
2022/04/26 04:12:01;;;;;;;18.30;15.77;;;;;;;;;;2072337;28;20188;-48
2022/04/26 04:13:01;;;;;;;17.17;14.63;;;;;;;;;;2070225;28;20196;-48
2022/04/26 04:14:02;;;;;;;23.45;16.40;;;;;;;;;;2072452;28;20283;-49
2022/04/26 04:15:02;;;;;;;18.40;16.17;;;;;;;;;;2072689;28;20173;-49
2022/04/26 04:16:03;;;;;;;22.45;15.77;;;;;;;;;;2072791;28;20172;-49
2022/04/26 04:17:03;;;;;;;16.45;14.75;;;;;;;;;;2072324;28;20176;-50
2022/04/26 04:19:17;;;;;;;17.20;15.02;;;;;;;;;;2072653;28;20177;-51
2022/04/26 04:19:25;;;;;;;19.45;15.30;;;;;;;;;;2072233;28;20256;-51
2022/04/26 04:20:26;;;;;;;21.10;15.82;;;;;;;;;;2072363;28;20526;-49
2022/04/26 04:21:26;;;;;;;22.77;17.70;;;;;;;;;;2072773;28;20176;-49
2022/04/26 04:22:26;;;;;;;19.98;16.40;;;;;;;;;;2072090;28;20177;-50
2022/04/26 04:23:27;;;;;;;19.85;16.35;;;;;;;;;;2072588;28;20197;-49
2022/04/26 04:24:27;;;;;;;18.58;16.48;;;;;;;;;;2072114;28;20176;-49
2022/04/26 04:25:27;;;;;;;19.30;15.52;;;;;;;;;;2072835;28;20260;-51
2022/04/26 04:26:27;;;;;;;21.55;17.00;;;;;;;;;;2072608;28;20171;-48
2022/04/26 04:27:28;;;;;;;18.40;16.47;;;;;;;;;;2072074;28;20177;-49
2022/04/26 04:28:28;;;;;;;22.33;17.87;;;;;;;;;;2071801;28;20180;-50
2022/04/26 04:29:28;;;;;;;21.42;16.90;;;;;;;;;;2071799;28;20164;-51
2022/04/26 04:30:29;;;;;;;20.05;17.15;;;;;;;;;;2079783;28;20200;-50
2022/04/26 04:31:29;;;;;;;20.17;16.70;;;;;;;;;;2071431;28;20683;-49
2022/04/26 04:32:29;;;;;;;20.80;16.63;;;;;;;;;;2070024;28;20181;-50
2022/04/26 04:33:30;;;;;;;23.42;17.35;;;;;;;;;;2072195;28;20291;-47
2022/04/26 04:34:30;;;;;;;19.25;16.13;;;;;;;;;;2071580;28;20260;-49
2022/04/26 04:35:30;;;;;;;19.02;15.20;;;;;;;;;;2072396;28;20224;-48
2022/04/26 04:36:32;;;;;;;21.58;15.90;;;;;;;;;;2072280;28;20563;-52
2022/04/26 04:37:32;;;;;;;17.25;15.07;;;;;;;;;;2072612;28;20181;-49
2022/04/26 04:38:32;;;;;;;20.08;15.02;;;;;;;;;;2071843;28;20165;-48
2022/04/26 04:39:33;;;;;;;23.98;15.48;;;;;;;;;;2072503;28;20231;-49
2022/04/26 04:40:33;;;;;;;16.73;14.93;;;;;;;;;;2072161;28;20189;-48
2022/04/26 04:41:36;;;;;;;17.27;14.43;;;;;;;;;;2069331;28;20263;-48
2022/04/26 04:42:37;;;;;;;19.30;14.95;;;;;;;;;;2071974;28;20260;-49
2022/04/26 04:43:37;;;;;;;17.33;14.60;;;;;;;;;;2063590;28;20182;-50
2022/04/26 04:44:37;;;;;;;19.00;14.05;;;;;;;;;;2064826;28;20626;-49
2022/04/26 04:45:40;;;;;;;16.25;13.98;;;;;;;;;;2079743;28;20196;-47
2022/04/26 04:46:40;;;;;;;20.45;14.90;;;;;;;;;;2072536;28;20272;-50
2022/04/26 04:47:41;;;;;;;18.13;14.70;;;;;;;;;;2071610;28;20169;-48
2022/04/26 04:48:41;;;;;;;16.95;14.18;;;;;;;;;;2073210;28;20169;-49
2022/04/26 04:49:41;;;;;;;16.15;14.18;;;;;;;;;;2072606;28;20259;-49
2022/04/26 04:50:42;;;;;;;19.58;15.90;;;;;;;;;;2073292;28;20255;-50
2022/04/26 04:51:42;;;;;;;17.23;15.23;;;;;;;;;;2072536;28;20181;-50
2022/04/26 04:52:42;;;;;;;17.20;15.40;;;;;;;;;;2073102;28;20162;-49
2022/04/26 04:53:42;;;;;;;19.23;15.30;;;;;;;;;;2072673;28;20196;-47
2022/04/26 04:54:43;;;;;;;20.48;15.85;;;;;;;;;;2066543;28;20200;-50
2022/04/26 04:55:43;;;;;;;17.35;14.88;;;;;;;;;;2072083;28;20566;-49
2022/04/26 04:56:43;;;;;;;19.30;15.23;;;;;;;;;;2072469;28;20568;-51
2022/04/26 04:57:43;;;;;;;20.95;16.80;;;;;;;;;;2071767;28;20181;-49
2022/04/26 04:58:43;;;;;;;19.52;15.07;;;;;;;;;;2071988;28;20234;-48
2022/04/26 04:59:44;;;;;;;21.55;14.88;;;;;;;;;;2070294;28;20603;-49
2022/04/26 05:00:44;;;;;;;18.98;16.45;;;;;;;;;;2071571;28;20165;-49
2022/04/26 05:01:44;;;;;;;18.80;15.82;;;;;;;;;;2072253;28;20171;-48
2022/04/26 05:02:46;;;;;;;21.58;15.68;;;;;;;;;;2071493;28;20205;-49
2022/04/26 05:03:46;;;;;;;17.80;15.90;;;;;;;;;;2070191;28;20187;-50
2022/04/26 05:04:48;;;;;;;21.30;15.57;;;;;;;;;;2072315;28;20209;-48
2022/04/26 05:05:48;;;;;;;17.35;15.52;;;;;;;;;;2072865;28;20526;-49
2022/04/26 05:06:48;;;;;;;19.90;16.10;;;;;;;;;;2066955;28;20241;-49
2022/04/26 05:07:50;;;;;;;18.58;15.57;;;;;;;;;;2070793;28;20620;-50
2022/04/26 05:08:50;;;;;;;16.67;14.63;;;;;;;;;;2079672;28;20231;-48
2022/04/26 05:09:51;;;;;;;16.95;15.15;;;;;;;;;;2067057;28;20641;-49
2022/04/26 05:10:51;;;;;;;19.38;16.10;;;;;;;;;;2065306;28;20189;-51
2022/04/26 05:11:52;;;;;;;19.17;15.55;;;;;;;;;;2069895;28;20209;-49
2022/04/26 05:12:52;;;;;;;25.98;16.60;;;;;;;;;;2072343;28;20562;-51
2022/04/26 05:13:52;;;;;;;16.80;15.20;;;;;;;;;;2073477;28;20295;-50
2022/04/26 05:14:52;;;;;;;20.05;16.13;;;;;;;;;;2073251;28;20180;-49
2022/04/26 05:15:53;;;;;;;19.70;15.57;;;;;;;;;;2075299;28;20176;-49
2022/04/26 05:16:53;;;;;;;19.38;16.25;;;;;;;;;;2075638;28;20232;-50
2022/04/26 05:17:53;;;;;;;17.60;15.88;;;;;;;;;;2075292;28;20176;-48
2022/04/26 05:18:53;;;;;;;22.38;16.42;;;;;;;;;;2074272;28;20181;-49
2022/04/26 05:19:54;;;;;;;17.08;15.23;;;;;;;;;;2071208;28;20191;-49
2022/04/26 05:20:54;;;;;;;17.13;14.77;;;;;;;;;;2073951;28;20272;-52
2022/04/26 05:21:55;;;;;;;19.77;16.45;;;;;;;;;;2075551;28;20173;-51
2022/04/26 05:25:34;;;;;;;18.92;15.63;;;;;;;;;;2074689;28;20180;-49
2022/04/26 05:26:34;;;;;;;19.42;16.13;;;;;;;;;;2074255;28;20179;-51
2022/04/26 05:27:35;;;;;;;20.52;17.25;;;;;;;;;;2074806;28;20191;-49
2022/04/26 05:28:35;;;;;;;17.08;15.23;;;;;;;;;;2071391;28;20184;-49
2022/04/26 05:29:36;;;;;;;18.40;15.82;;;;;;;;;;2075719;28;20175;-48
2022/04/26 05:30:36;;;;;;;19.67;16.25;;;;;;;;;;2073852;28;20192;-50
2022/04/26 05:31:36;;;;;;;22.70;16.25;;;;;;;;;;2074743;28;20209;-50
2022/04/26 05:32:36;;;;;;;18.20;15.57;;;;;;;;;;2074274;28;20637;-52
2022/04/26 05:33:36;;;;;;;17.80;15.90;;;;;;;;;;2070726;28;20252;-52
2022/04/26 05:34:37;;;;;;;18.20;16.13;;;;;;;;;;2071688;28;20227;-51
2022/04/26 05:35:37;;;;;;;17.17;15.35;;;;;;;;;;2075708;28;20185;-51
2022/04/26 05:36:38;;;;;;;22.15;16.67;;;;;;;;;;2075098;28;20168;-52
2022/04/26 05:37:38;;;;;;;21.20;16.00;;;;;;;;;;2072689;28;20740;-50
2022/04/26 05:38:38;;;;;;;22.83;16.23;;;;;;;;;;2073165;28;20184;-51
2022/04/26 05:39:38;;;;;;;21.30;16.00;;;;;;;;;;2073855;28;20257;-51
2022/04/26 05:40:39;;;;;;;21.38;15.95;;;;;;;;;;2073033;28;20181;-51
2022/04/26 05:41:39;;;;;;;18.45;16.55;;;;;;;;;;2071507;28;20224;-53
2022/04/26 05:42:40;;;;;;;25.92;15.73;;;;;;;;;;2073222;28;20188;-49
2022/04/26 05:43:40;;;;;;;18.23;16.27;;;;;;;;;;2071464;28;20769;-50
2022/04/26 05:44:42;;;;;;;20.95;16.33;;;;;;;;;;2071375;28;20178;-52
2022/04/26 05:45:43;;;;;;;21.42;16.23;;;;;;;;;;2073385;28;20184;-51
2022/04/26 05:46:43;;;;;;;20.60;17.02;;;;;;;;;;2072334;28;20617;-54
2022/04/26 05:47:44;;;;;;;19.05;15.13;;;;;;;;;;2070739;28;20706;-52
2022/04/26 05:48:44;;;;;;;21.13;16.02;;;;;;;;;;2077274;28;20173;-53
2022/04/26 05:49:45;;;;;;;19.23;16.52;;;;;;;;;;2077166;28;20173;-52
2022/04/26 05:50:45;;;;;;;19.75;17.05;;;;;;;;;;2078172;28;20491;-51
2022/04/26 05:51:45;;;;;;;21.13;17.17;;;;;;;;;;2078055;28;20242;-50
2022/04/26 05:52:45;;;;;;;19.48;16.42;;;;;;;;;;2070750;28;20181;-51
2022/04/26 05:53:46;;;;;;;19.58;15.52;;;;;;;;;;2068268;28;20229;-51
2022/04/26 05:54:46;;;;;;;18.75;15.27;;;;;;;;;;2071106;28;20176;-50
2022/04/26 05:55:46;;;;;;;18.88;16.48;;;;;;;;;;2070609;28;20244;-50
2022/04/26 05:56:46;;;;;;;18.88;15.65;;;;;;;;;;2072999;28;20197;-54
2022/04/26 05:57:46;;;;;;;21.98;16.27;;;;;;;;;;2069559;28;20183;-50
2022/04/26 05:58:47;;;;;;;18.08;15.23;;;;;;;;;;2070039;28;20666;-49
2022/04/26 05:59:47;;;;;;;17.85;15.73;;;;;;;;;;2070727;28;20174;-52
2022/04/26 06:00:48;;;;;;;22.42;15.77;;;;;;;;;;2069456;28;20179;-51
2022/04/26 06:01:49;;;;;;;16.73;14.60;;;;;;;;;;2070721;28;20158;-49
2022/04/26 06:02:49;;;;;;;19.15;15.45;;;;;;;;;;2067073;28;20684;-49
2022/04/26 06:03:49;;;;;;;17.60;15.55;;;;;;;;;;2070842;28;20608;-50
2022/04/26 06:04:50;;;;;;;17.35;13.85;;;;;;;;;;2070310;28;20254;-52
2022/04/26 06:05:50;;;;;;;16.98;15.15;;;;;;;;;;2070030;28;20264;-50
2022/04/26 06:06:50;;;;;;;18.02;14.43;;;;;;;;;;2071881;28;20177;-53
2022/04/26 06:07:51;;;;;;;18.83;15.73;;;;;;;;;;2071061;28;20169;-50
2022/04/26 06:08:51;;;;;;;16.90;15.02;;;;;;;;;;2069413;28;20173;-52
2022/04/26 06:09:53;;;;;;;19.13;14.75;;;;;;;;;;2069880;28;20696;-51
2022/04/26 06:10:55;;;;;;;15.63;13.90;;;;;;;;;;2070563;28;20179;-50
2022/04/26 06:11:57;;;;;;;18.80;16.13;;;;;;;;;;2069463;28;20578;-50
2022/04/26 06:12:58;;;;;;;19.50;17.40;;;;;;;;;;2071005;28;20203;-49
2022/04/26 06:13:59;;;;;;;18.73;15.82;;;;;;;;;;2070169;28;20239;-50
2022/04/26 06:14:59;;;;;;;18.25;15.05;;;;;;;;;;2067701;28;20264;-49
2022/04/26 06:16:00;;;;;;;17.75;14.85;;;;;;;;;;2071554;28;20539;-50
2022/04/26 06:17:00;;;;;;;16.08;13.98;;;;;;;;;;2069473;28;20315;-49
2022/04/26 06:18:00;;;;;;;20.52;15.00;;;;;;;;;;2072424;28;20550;-50
2022/04/26 06:19:02;;;;;;;17.23;15.20;;;;;;;;;;2069698;28;20833;-48
2022/04/26 06:20:02;;;;;;;16.67;14.80;;;;;;;;;;2070942;28;20176;-48
2022/04/26 06:21:03;;;;;;;16.52;14.88;;;;;;;;;;2070512;28;20173;-49
2022/04/26 06:22:03;;;;;;;16.48;14.25;;;;;;;;;;2071898;28;20204;-49
2022/04/26 06:23:03;;;;;;;20.63;14.82;;;;;;;;;;2072989;28;20201;-49
2022/04/26 06:24:04;;;;;;;16.75;14.95;;;;;;;;;;2069359;28;20188;-51
2022/04/26 06:25:04;;;;;;;19.30;15.32;;;;;;;;;;2072154;28;20272;-49
2022/04/26 06:26:05;;;;;;;17.77;14.65;;;;;;;;;;2073103;28;20180;-50
2022/04/26 06:27:05;;;;;;;21.98;15.38;;;;;;;;;;2069615;28;20196;-53
2022/04/26 06:28:09;;;;;;;18.25;14.77;;;;;;;;;;2069925;28;20182;-49
2022/04/26 06:29:09;;;;;;;15.68;13.63;;;;;;;;;;2068722;28;20194;-50
2022/04/26 06:30:11;;;;;;;20.42;14.95;;;;;;;;;;2069703;28;20165;-51
2022/04/26 06:31:11;;;;;;;19.13;14.18;;;;;;;;;;2071008;28;20191;-49
2022/04/26 06:32:11;;;;;;;19.13;14.88;;;;;;;;;;2074425;28;20281;-49
2022/04/26 06:33:11;;;;;;;15.75;14.18;;;;;;;;;;2077657;28;20254;-49
2022/04/26 06:34:12;;;;;;;18.88;15.73;;;;;;;;;;2079174;28;20211;-50
2022/04/26 06:35:12;;;;;;;21.92;16.33;;;;;;;;;;2069458;28;20174;-49
2022/04/26 06:36:13;;;;;;;24.02;21.45;;;;;;;;;;2070475;28;20188;-50
2022/04/26 06:37:14;;;;;;;20.33;17.13;;;;;;;;;;2079693;28;20258;-50
2022/04/26 06:38:16;;;;;;;18.88;15.18;;;;;;;;;;2076313;28;20279;-45
2022/04/26 06:39:16;;;;;;;25.52;20.75;;;;;;;;;;2068710;28;20277;-49
2022/04/26 06:40:17;;;;;;;16.98;14.82;;;;;;;;;;2071794;28;20181;-51
2022/04/26 06:41:17;;;;;;;17.58;14.05;;;;;;;;;;2070549;28;20173;-49
2022/04/26 06:42:17;;;;;;;17.25;14.85;;;;;;;;;;2071751;28;20575;-48
2022/04/26 06:43:18;;;;;;;19.08;16.58;;;;;;;;;;2073032;28;20189;-51
2022/04/26 06:44:18;;;;;;;18.73;16.33;;;;;;;;;;2073599;28;20173;-50
2022/04/26 06:45:18;;;;;;;25.08;15.40;;;;;;;;;;2068141;28;20166;-52
2022/04/26 06:46:19;;;;;;;20.08;17.50;;;;;;;;;;2072340;28;20330;-51
2022/04/26 06:47:19;;;;;;;16.92;14.02;;;;;;;;;;2071720;28;20192;-50
2022/04/26 06:48:19;;;;;;;20.10;15.00;;;;;;;;;;2073630;28;20764;-51
2022/04/26 06:49:19;;;;;;;18.90;16.65;;;;;;;;;;2073537;28;20189;-53
2022/04/26 06:50:19;;;;;;;17.23;15.05;;;;;;;;;;2073266;28;20169;-50
2022/04/26 06:51:21;;;;;;;25.85;21.80;;;;;;;;;;2073010;28;20259;-51
2022/04/26 06:52:21;;;;;;;20.85;17.42;;;;;;;;;;2072231;28;20181;-51
2022/04/26 06:53:22;;;;;;;18.83;14.48;;;;;;;;;;2073010;28;20247;-53
2022/04/26 06:54:22;;;;;;;30.45;16.20;;;;;;;;;;2080789;28;20723;-53
2022/04/26 06:55:22;;;;;;;18.15;15.68;;;;;;;;;;2073315;28;20257;-51
2022/04/26 06:56:22;;;;;;;19.88;14.85;;;;;;;;;;2072859;28;20181;-50
2022/04/26 06:57:22;;;;;;;17.48;15.68;;;;;;;;;;2072822;28;20235;-50
2022/04/26 06:58:23;;;;;;;15.57;13.90;;;;;;;;;;2073811;28;20251;-50
2022/04/26 06:59:23;;;;;;;22.83;19.00;;;;;;;;;;2073258;28;20161;-50
2022/04/26 07:00:24;;;;;;;18.67;15.68;;;;;;;;;;2072089;28;20203;-52
2022/04/26 07:01:24;;;;;;;20.73;15.98;;;;;;;;;;2072271;28;20249;-57
2022/04/26 07:02:24;;;;;;;19.63;15.63;;;;;;;;;;2072767;28;20165;-49
2022/04/26 07:03:24;;;;;;;20.45;15.48;;;;;;;;;;2073124;28;20192;-52
2022/04/26 07:04:25;;;;;;;15.65;14.05;;;;;;;;;;2073432;28;20176;-52
2022/04/26 07:05:25;;;;;;;17.65;14.45;;;;;;;;;;2073818;28;20200;-51
2022/04/26 07:06:25;;;;;;;18.27;14.50;;;;;;;;;;2073177;28;20226;-50
2022/04/26 07:07:26;;;;;;;17.85;14.18;;;;;;;;;;2074146;28;20169;-50
2022/04/26 07:08:26;;;;;;;18.70;14.95;;;;;;;;;;2073468;28;20254;-50
2022/04/26 07:09:26;;;;;;;15.77;14.13;;;;;;;;;;2073203;28;20244;-49
2022/04/26 07:10:28;;;;;;;19.35;14.52;;;;;;;;;;2073419;28;20184;-48
2022/04/26 07:11:29;;;;;;;17.85;14.20;;;;;;;;;;2071090;28;20644;-50
2022/04/26 07:12:29;;;;;;;18.00;15.60;;;;;;;;;;2067296;28;20224;-49
2022/04/26 07:13:29;;;;;;;16.33;14.30;;;;;;;;;;2065144;28;20311;-47
2022/04/26 07:14:30;;;;;;;18.35;14.55;;;;;;;;;;2071914;28;20169;-49
2022/04/26 07:15:30;;;;;;;24.88;14.27;;;;;;;;;;2069690;28;20177;-51
2022/04/26 07:16:30;;;;;;;18.33;14.50;;;;;;;;;;2073593;28;20304;-50
2022/04/26 07:17:30;;;;;;;17.70;15.25;;;;;;;;;;2073094;28;20192;-48
2022/04/26 07:18:31;;;;;;;16.60;13.82;;;;;;;;;;2067993;28;20217;-47
2022/04/26 07:19:35;;;;;;;17.15;14.52;;;;;;;;;;2065471;28;20189;-49
2022/04/26 07:20:35;;;;;;;18.80;16.30;;;;;;;;;;2081452;28;20176;-49
2022/04/26 07:21:35;;;;;;;19.10;16.20;;;;;;;;;;2080541;28;20180;-48
2022/04/26 07:22:36;;;;;;;23.80;15.00;;;;;;;;;;2071550;28;20184;-49
2022/04/26 07:23:36;;;;;;;23.65;16.65;;;;;;;;;;2066029;28;20209;-51
2022/04/26 07:24:37;;;;;;;19.48;14.82;;;;;;;;;;2072852;28;20184;-52
2022/04/26 07:25:37;;;;;;;21.50;15.48;;;;;;;;;;2065547;28;20527;-49
2022/04/26 07:26:37;;;;;;;17.67;15.75;;;;;;;;;;2072658;28;20350;-49
2022/04/26 07:27:39;;;;;;;20.48;16.08;;;;;;;;;;2072577;28;20267;-49
2022/04/26 07:28:39;;;;;;;24.48;16.70;;;;;;;;;;2073937;28;20360;-51
2022/04/26 07:29:41;;;;;;;20.58;16.25;;;;;;;;;;2066120;28;20184;-49
2022/04/26 07:30:41;;;;;;;23.13;16.13;;;;;;;;;;2073478;28;20184;-54
2022/04/26 07:31:41;;;;;;;24.35;17.10;;;;;;;;;;2073342;28;20213;-50
2022/04/26 07:34:20;;;;;;;19.42;17.10;;;;;;;;;;2052843;28;20746;-50
2022/04/26 07:36:24;;;;;;;21.38;15.88;;;;;;;;;;2074682;28;20238;-52
2022/04/26 07:37:24;;;;;;;21.55;16.92;;;;;;;;;;2081262;28;20179;-56
2022/04/26 07:38:24;;;;;;;22.58;17.20;;;;;;;;;;2081504;28;20183;-53
2022/04/26 07:39:25;;;;;;;21.02;17.42;;;;;;;;;;2081515;28;20172;-50
2022/04/26 07:40:26;;;;;;;21.58;17.65;;;;;;;;;;2081406;28;20255;-51
2022/04/26 07:41:26;;;;;;;27.77;22.75;;;;;;;;;;2082466;28;20573;-50
2022/04/26 07:42:26;;;;;;;22.83;19.17;;;;;;;;;;2075718;28;20702;-52
2022/04/26 07:43:27;;;;;;;24.98;16.85;;;;;;;;;;2080169;28;20513;-49
2022/04/26 07:44:27;;;;;;;26.08;16.05;;;;;;;;;;2079258;28;20195;-50
2022/04/26 07:45:27;;;;;;;21.65;16.45;;;;;;;;;;2079956;28;20181;-49
2022/04/26 07:46:28;;;;;;;24.02;15.52;;;;;;;;;;2080335;28;20164;-55
2022/04/26 07:47:29;;;;;;;15.70;13.73;;;;;;;;;;2080657;28;20188;-50
2022/04/26 07:48:29;;;;;;;21.38;15.95;;;;;;;;;;2079547;28;20298;-53
2022/04/26 07:49:29;;;;;;;20.60;16.10;;;;;;;;;;2074789;28;20179;-52
2022/04/26 07:50:30;;;;;;;23.80;15.93;;;;;;;;;;2082235;28;20603;-54
2022/04/26 07:51:31;;;;;;;19.98;15.80;;;;;;;;;;2081781;28;20176;-52
2022/04/26 07:52:31;;;;;;;20.30;14.95;;;;;;;;;;2081732;28;20192;-56
2022/04/26 07:53:32;;;;;;;26.45;16.88;;;;;;;;;;2080800;28;20609;-55
2022/04/26 07:54:32;;;;;;;16.85;15.05;;;;;;;;;;2080244;28;20175;-53
2022/04/26 07:55:32;;;;;;;21.77;16.15;;;;;;;;;;2080931;28;20169;-52
2022/04/26 07:56:33;;;;;;;28.60;16.85;;;;;;;;;;2087598;28;20658;-56
2022/04/26 07:57:33;;;;;;;17.42;15.63;;;;;;;;;;2081731;28;20176;-54
2022/04/26 07:58:33;;;;;;;23.83;15.85;;;;;;;;;;2079054;28;20168;-55
2022/04/26 07:59:34;;;;;;;19.23;14.68;;;;;;;;;;2073400;28;20184;-54
2022/04/26 08:00:35;;;;;;;26.40;16.08;;;;;;;;;;2089003;28;20207;-53
2022/04/26 08:01:35;;;;;;;24.98;16.00;;;;;;;;;;2081769;28;20211;-51
2022/04/26 08:02:35;;;;;;;18.98;14.95;;;;;;;;;;2076988;28;20169;-57
2022/04/26 08:03:35;;;;;;;31.90;15.45;;;;;;;;;;2079510;28;20160;-51
2022/04/26 08:04:36;;;;;;;20.98;17.05;;;;;;;;;;2089652;28;20172;-55
2022/04/26 08:05:36;;;;;;;20.05;16.02;;;;;;;;;;2080785;28;20633;-54
2022/04/26 08:06:36;;;;;;;20.67;15.13;;;;;;;;;;2081038;28;20225;-54
2022/04/26 08:07:41;;;;;;;20.80;15.60;;;;;;;;;;2078461;28;20178;-53
2022/04/26 08:08:41;;;;;;;16.80;15.07;;;;;;;;;;2075591;28;20205;-51
2022/04/26 08:09:43;;;;;;;23.15;15.57;;;;;;;;;;2078988;28;20211;-54
2022/04/26 08:10:43;;;;;;;20.83;15.38;;;;;;;;;;2078359;28;20246;-52
2022/04/26 08:11:43;;;;;;;18.15;15.13;;;;;;;;;;2079771;28;20375;-49
2022/04/26 08:12:43;;;;;;;34.47;16.75;;;;;;;;;;2079717;28;20184;-50
2022/04/26 08:13:44;;;;;;;25.90;16.13;;;;;;;;;;2080151;28;20218;-48
2022/04/26 08:14:44;;;;;;;23.50;17.40;;;;;;;;;;2079363;28;20184;-52
2022/04/26 08:15:44;;;;;;;38.05;18.75;;;;;;;;;;2085458;28;20564;-55
2022/04/26 08:16:45;;;;;;;33.85;16.60;;;;;;;;;;2087472;28;20243;-51
2022/04/26 08:17:46;;;;;;;28.40;16.83;;;;;;;;;;2073096;28;20653;-51
2022/04/26 08:18:46;;;;;;;22.55;15.32;;;;;;;;;;2079067;28;20168;-53
2022/04/26 08:19:47;;;;;;;23.63;15.73;;;;;;;;;;2078169;28;20220;-54
2022/04/26 08:20:47;;;;;;;21.00;14.93;;;;;;;;;;2082765;28;20184;-52
2022/04/26 08:21:48;;;;;;;18.55;14.82;;;;;;;;;;2085325;28;20180;-53
2022/04/26 08:22:48;;;;;;;29.45;15.18;;;;;;;;;;2077610;28;20176;-50
2022/04/26 08:27:45;;;;;;;32.75;17.90;;;;;;;;;;2075727;28;20168;-56
2022/04/26 08:28:46;;;;;;;24.13;17.67;;;;;;;;;;2079726;28;20555;-53
2022/04/26 08:29:46;;;;;;;20.15;16.33;;;;;;;;;;2079978;28;20180;-51
2022/04/26 08:30:47;;;;;;;17.17;15.50;;;;;;;;;;2078065;28;20665;-51
2022/04/26 08:31:47;;;;;;;18.95;15.95;;;;;;;;;;2078932;28;20822;-56
2022/04/26 08:32:48;;;;;;;17.70;14.55;;;;;;;;;;2079719;28;20255;-55
2022/04/26 08:33:48;;;;;;;18.52;14.77;;;;;;;;;;2078397;28;20294;-50
2022/04/26 08:34:49;;;;;;;21.15;16.15;;;;;;;;;;2078542;28;20622;-53
2022/04/26 08:35:49;;;;;;;16.70;13.65;;;;;;;;;;2078731;28;20211;-52
2022/04/26 08:36:49;;;;;;;20.50;15.38;;;;;;;;;;2077964;28;20176;-53
2022/04/26 08:37:50;;;;;;;17.80;13.65;;;;;;;;;;2075029;28;20161;-56
2022/04/26 08:38:50;;;;;;;15.27;13.77;;;;;;;;;;2076713;28;20643;-54
2022/04/26 08:39:55;;;;;;;17.98;14.25;;;;;;;;;;2080240;28;20168;-50
2022/04/26 08:40:55;;;;;;;17.25;13.05;;;;;;;;;;2075243;28;20573;-49
2022/04/26 08:41:59;;;;;;;16.20;13.38;;;;;;;;;;2078657;28;20199;-53
2022/04/26 08:43:00;;;;;;;17.80;14.48;;;;;;;;;;2075442;28;20511;-52
2022/04/26 08:44:00;;;;;;;19.35;14.50;;;;;;;;;;2076578;28;20192;-52
2022/04/26 08:45:01;;;;;;;17.35;14.70;;;;;;;;;;2078185;28;20204;-52
2022/04/26 08:46:03;;;;;;;16.27;14.55;;;;;;;;;;2076070;28;20308;-54
2022/04/26 08:51:00;;;;;;;17.70;15.93;;;;;;;;;;2079545;28;20213;-48
2022/04/26 08:52:02;;;;;;;18.70;16.08;;;;;;;;;;2077652;28;20510;-53
2022/04/26 08:53:03;;;;;;;18.17;15.15;;;;;;;;;;2079695;28;20187;-53
2022/04/26 08:54:03;;;;;;;16.85;14.80;;;;;;;;;;2076609;28;20208;-48
2022/04/26 08:55:03;;;;;;;25.70;16.42;;;;;;;;;;2077126;28;20640;-52
2022/04/26 08:56:06;;;;;;;17.88;15.30;;;;;;;;;;2079906;28;20218;-51
2022/04/26 08:57:06;;;;;;;16.38;14.65;;;;;;;;;;2081944;28;20187;-50
2022/04/26 08:58:08;;;;;;;19.13;15.18;;;;;;;;;;2079705;28;20223;-54
2022/04/26 08:59:09;;;;;;;35.20;16.85;;;;;;;;;;2079604;28;20196;-49
2022/04/26 09:00:11;;;;;;;20.05;15.00;;;;;;;;;;2078063;28;20197;-55
2022/04/26 09:01:13;;;;;;;19.67;15.82;;;;;;;;;;2078425;28;20179;-51
2022/04/26 09:02:15;;;;;;;23.02;15.82;;;;;;;;;;2078335;28;20181;-50
2022/04/26 09:03:15;;;;;;;20.23;16.00;;;;;;;;;;2079982;28;20176;-54
2022/04/26 09:04:17;;;;;;;17.17;15.10;;;;;;;;;;2077601;28;20334;-48
2022/04/26 09:05:17;;;;;;;16.15;14.43;;;;;;;;;;2077731;28;20658;-49
2022/04/26 09:06:17;;;;;;;21.52;15.20;;;;;;;;;;2077633;28;20243;-47
2022/04/26 09:07:27;;;;;;;19.75;16.70;;;;;;;;;;2077911;28;20261;-53
2022/04/26 09:08:27;;;;;;;21.00;16.67;;;;;;;;;;2079713;28;20181;-57
2022/04/26 09:09:29;;;;;;;22.05;16.05;;;;;;;;;;2080294;28;20243;-53
2022/04/26 09:10:29;;;;;;;20.40;16.30;;;;;;;;;;2077713;28;20269;-53
2022/04/26 09:11:34;;;;;;;19.45;15.77;;;;;;;;;;2080197;28;20646;-56
2022/04/26 09:12:52;;;;;;;22.23;14.52;;;;;;;;;;2080186;28;20589;-50
2022/04/26 09:13:53;;;;;;;23.77;15.32;;;;;;;;;;2079780;28;20291;-53
2022/04/26 09:14:54;;;;;;;17.17;14.65;;;;;;;;;;2078374;28;20164;-54
2022/04/26 09:15:57;;;;;;;18.63;15.23;;;;;;;;;;2080086;28;20238;-55
2022/04/26 09:17:04;;;;;;;20.75;16.75;;;;;;;;;;2079786;28;20171;-49
2022/04/26 09:18:12;;;;;;;26.80;16.63;;;;;;;;;;2080089;28;20167;-48
2022/04/26 09:19:12;;;;;;;18.60;16.45;;;;;;;;;;2078421;28;20227;-53
2022/04/26 09:20:13;;;;;;;26.38;15.55;;;;;;;;;;2078476;28;20160;-53
2022/04/26 09:21:13;;;;;;;21.77;14.98;;;;;;;;;;2079111;28;20668;-48
2022/04/26 09:22:16;;;;;;;19.83;15.77;;;;;;;;;;2079360;28;20228;-54
2022/04/26 09:23:17;;;;;;;17.38;13.43;;;;;;;;;;2078025;28;20172;-58
2022/04/26 09:24:17;;;;;;;15.55;13.55;;;;;;;;;;2079259;28;20271;-51
2022/04/26 09:25:18;;;;;;;16.80;14.15;;;;;;;;;;2080068;28;20164;-54
2022/04/26 09:26:18;;;;;;;27.55;15.90;;;;;;;;;;2077569;28;20656;-49
2022/04/26 09:27:18;;;;;;;16.77;13.98;;;;;;;;;;2078396;28;20219;-52
2022/04/26 09:28:29;;;;;;;17.45;15.23;;;;;;;;;;2079924;28;20248;-56
2022/04/26 09:29:29;;;;;;;19.38;15.55;;;;;;;;;;2079570;28;20235;-55
2022/04/26 09:30:29;;;;;;;19.27;15.20;;;;;;;;;;2080399;28;20688;-49
2022/04/26 09:31:31;;;;;;;16.30;13.85;;;;;;;;;;2078977;28;20227;-51
2022/04/26 09:32:44;;;;;;;16.67;13.43;;;;;;;;;;2080541;28;20637;-50
2022/04/26 09:33:49;;;;;;;14.50;13.00;;;;;;;;;;2080049;28;20212;-49
2022/04/26 09:34:49;;;;;;;17.42;12.57;;;;;;;;;;2078613;28;20185;-53
2022/04/26 09:35:58;;;;;;;15.00;13.27;;;;;;;;;;2081267;28;20229;-51
2022/04/26 09:37:04;;;;;;;15.43;13.00;;;;;;;;;;2079894;28;20243;-47
2022/04/26 09:38:04;;;;;;;15.70;12.57;;;;;;;;;;2080986;28;20244;-50
2022/04/26 09:39:07;;;;;;;41.30;14.38;;;;;;;;;;2079933;28;20245;-53
2022/04/26 09:40:09;;;;;;;30.88;14.55;;;;;;;;;;2078477;28;20188;-53
2022/04/26 09:41:10;;;;;;;17.75;13.43;;;;;;;;;;2081673;28;20172;-53
2022/04/26 09:42:10;;;;;;;15.48;12.77;;;;;;;;;;2078430;28;20187;-53
2022/04/26 09:43:14;;;;;;;13.73;12.43;;;;;;;;;;2081490;28;20180;-51